Terminal Aerodrome Forecast
Issued by NWS

Current Version | Previous Version | Graphics & Text | Print | Product List | Glossary On
Versions: 1 2 3 4 5 6 7 8 9 10 11 12 13 14 15 16 17 18 19
000
FTUS41 KPBZ 141559 AAD
TAFHLG
TAF AMD
KHLG 141559Z 1416/1512 33007KT 1SM -SN BKN008 OVC025
     FM141630 33007KT 3SM -SN BKN015
     FM141700 33010KT P6SM BKN025
     FM150300 28005KT P6SM SCT025=

USA.gov is the U.S. government's official web portal to all federal, state and local government web resources and services.